sensor_id;sensor_type;location;lat;lon;timestamp;pressure;altitude;pressure_sealevel;temperature;humidity
15817;BME280;8009;50.070;8.232;2023-12-20T00:01:12;99950.25;;;8.84;72.10
15817;BME280;8009;50.070;8.232;2023-12-20T00:03:41;99962.72;;;8.33;73.76
15817;BME280;8009;50.070;8.232;2023-12-20T00:06:13;99945.81;;;8.83;72.28
15817;BME280;8009;50.070;8.232;2023-12-20T00:08:41;99946.63;;;8.45;73.68
15817;BME280;8009;50.070;8.232;2023-12-20T00:11:10;99950.72;;;8.24;74.14
15817;BME280;8009;50.070;8.232;2023-12-20T00:13:38;99934.94;;;8.72;72.19
15817;BME280;8009;50.070;8.232;2023-12-20T00:16:07;99932.38;;;8.70;72.29
15817;BME280;8009;50.070;8.232;2023-12-20T00:18:37;99925.38;;;8.28;73.73
15817;BME280;8009;50.070;8.232;2023-12-20T00:21:14;99929.31;;;8.62;72.84
15817;BME280;8009;50.070;8.232;2023-12-20T00:23:43;99925.97;;;8.46;73.15
15817;BME280;8009;50.070;8.232;2023-12-20T00:26:11;99931.16;;;8.35;73.78
15817;BME280;8009;50.070;8.232;2023-12-20T00:28:41;99924.28;;;8.70;71.94
15817;BME280;8009;50.070;8.232;2023-12-20T00:31:18;99923.19;;;8.60;72.51
15817;BME280;8009;50.070;8.232;2023-12-20T00:33:47;99915.03;;;8.87;71.37
15817;BME280;8009;50.070;8.232;2023-12-20T00:36:17;99922.78;;;8.66;72.41
15817;BME280;8009;50.070;8.232;2023-12-20T00:38:46;99927.50;;;8.75;72.22
15817;BME280;8009;50.070;8.232;2023-12-20T00:41:15;99921.75;;;8.54;72.45
15817;BME280;8009;50.070;8.232;2023-12-20T00:43:43;99920.50;;;8.73;71.92
15817;BME280;8009;50.070;8.232;2023-12-20T00:46:12;99926.66;;;8.75;72.01
15817;BME280;8009;50.070;8.232;2023-12-20T00:48:41;99925.66;;;8.23;73.21
15817;BME280;8009;50.070;8.232;2023-12-20T00:51:11;99912.66;;;8.83;71.44
15817;BME280;8009;50.070;8.232;2023-12-20T00:53:41;99911.66;;;8.45;73.13
15817;BME280;8009;50.070;8.232;2023-12-20T00:56:10;99919.31;;;7.70;76.05
15817;BME280;8009;50.070;8.232;2023-12-20T00:58:39;99915.44;;;8.56;72.69
15817;BME280;8009;50.070;8.232;2023-12-20T01:01:09;99917.34;;;8.53;72.43
15817;BME280;8009;50.070;8.232;2023-12-20T01:03:38;99904.78;;;8.92;71.36
15817;BME280;8009;50.070;8.232;2023-12-20T01:06:06;99902.50;;;8.73;71.65
15817;BME280;8009;50.070;8.232;2023-12-20T01:08:34;99896.59;;;8.81;71.71
15817;BME280;8009;50.070;8.232;2023-12-20T01:11:06;99908.66;;;7.96;74.90
15817;BME280;8009;50.070;8.232;2023-12-20T01:13:35;99900.75;;;8.47;73.03
15817;BME280;8009;50.070;8.232;2023-12-20T01:16:03;99903.94;;;8.26;74.15
15817;BME280;8009;50.070;8.232;2023-12-20T01:18:32;99911.44;;;8.48;73.02
15817;BME280;8009;50.070;8.232;2023-12-20T01:21:02;99900.59;;;9.01;71.11
15817;BME280;8009;50.070;8.232;2023-12-20T01:23:31;99900.81;;;8.72;72.11
15817;BME280;8009;50.070;8.232;2023-12-20T01:26:00;99907.28;;;8.83;71.63
15817;BME280;8009;50.070;8.232;2023-12-20T01:28:32;99908.97;;;8.58;72.38
15817;BME280;8009;50.070;8.232;2023-12-20T01:31:01;99903.41;;;8.87;71.77
15817;BME280;8009;50.070;8.232;2023-12-20T01:33:37;99901.66;;;9.11;70.89
15817;BME280;8009;50.070;8.232;2023-12-20T01:36:05;99901.00;;;8.44;73.37
15817;BME280;8009;50.070;8.232;2023-12-20T01:38:34;99896.41;;;8.71;72.21
15817;BME280;8009;50.070;8.232;2023-12-20T01:41:03;99906.50;;;9.19;70.46
15817;BME280;8009;50.070;8.232;2023-12-20T01:43:34;99914.44;;;9.33;70.16
15817;BME280;8009;50.070;8.232;2023-12-20T01:46:03;99922.88;;;9.28;70.11
15817;BME280;8009;50.070;8.232;2023-12-20T01:48:34;99927.84;;;9.22;69.94
15817;BME280;8009;50.070;8.232;2023-12-20T01:51:04;99933.97;;;9.11;70.69
15817;BME280;8009;50.070;8.232;2023-12-20T01:53:45;99931.59;;;9.19;70.68
15817;BME280;8009;50.070;8.232;2023-12-20T01:59:44;99904.38;;;8.86;71.95
15817;BME280;8009;50.070;8.232;2023-12-20T02:02:12;99925.25;;;8.82;71.90
15817;BME280;8009;50.070;8.232;2023-12-20T02:04:41;99925.34;;;8.68;72.69
15817;BME280;8009;50.070;8.232;2023-12-20T02:07:18;99909.44;;;9.16;70.66
15817;BME280;8009;50.070;8.232;2023-12-20T02:09:46;99909.41;;;9.03;71.18
15817;BME280;8009;50.070;8.232;2023-12-20T02:12:15;99911.59;;;8.98;71.24
15817;BME280;8009;50.070;8.232;2023-12-20T02:14:46;99904.25;;;8.87;71.91
15817;BME280;8009;50.070;8.232;2023-12-20T02:17:14;99896.72;;;8.79;70.88
15817;BME280;8009;50.070;8.232;2023-12-20T02:19:43;99895.75;;;9.06;70.79
15817;BME280;8009;50.070;8.232;2023-12-20T02:22:14;99898.84;;;9.25;69.95
15817;BME280;8009;50.070;8.232;2023-12-20T02:24:42;99898.22;;;9.09;70.39
15817;BME280;8009;50.070;8.232;2023-12-20T02:27:10;99896.69;;;9.18;70.34
15817;BME280;8009;50.070;8.232;2023-12-20T02:29:39;99898.13;;;8.98;70.97
15817;BME280;8009;50.070;8.232;2023-12-20T02:32:09;99909.31;;;8.79;71.39
15817;BME280;8009;50.070;8.232;2023-12-20T02:34:37;99908.78;;;9.12;70.24
15817;BME280;8009;50.070;8.232;2023-12-20T02:37:06;99912.34;;;9.13;70.29
15817;BME280;8009;50.070;8.232;2023-12-20T02:39:37;99901.34;;;9.16;70.40
15817;BME280;8009;50.070;8.232;2023-12-20T02:42:06;99903.78;;;9.19;70.04
15817;BME280;8009;50.070;8.232;2023-12-20T02:44:35;99905.97;;;9.14;70.26
15817;BME280;8009;50.070;8.232;2023-12-20T02:47:08;99902.50;;;9.24;69.79
15817;BME280;8009;50.070;8.232;2023-12-20T02:49:37;99899.41;;;9.05;70.60
15817;BME280;8009;50.070;8.232;2023-12-20T02:52:05;99907.19;;;8.97;70.60
15817;BME280;8009;50.070;8.232;2023-12-20T02:54:38;99906.53;;;8.93;70.89
15817;BME280;8009;50.070;8.232;2023-12-20T02:57:09;99906.75;;;8.90;71.13
15817;BME280;8009;50.070;8.232;2023-12-20T02:59:37;99918.69;;;8.99;71.05
15817;BME280;8009;50.070;8.232;2023-12-20T03:02:05;99920.72;;;8.95;71.06
15817;BME280;8009;50.070;8.232;2023-12-20T03:04:33;99930.06;;;8.51;72.00
15817;BME280;8009;50.070;8.232;2023-12-20T03:07:02;99921.38;;;8.86;71.60
15817;BME280;8009;50.070;8.232;2023-12-20T03:09:31;99917.84;;;8.86;71.38
15817;BME280;8009;50.070;8.232;2023-12-20T03:12:03;99911.97;;;8.14;73.88
15817;BME280;8009;50.070;8.232;2023-12-20T03:14:31;99913.19;;;8.75;71.84
15817;BME280;8009;50.070;8.232;2023-12-20T03:17:00;99913.94;;;9.02;70.98
15817;BME280;8009;50.070;8.232;2023-12-20T03:19:28;99916.22;;;9.09;70.72
15817;BME280;8009;50.070;8.232;2023-12-20T03:21:57;99925.13;;;9.22;69.99
15817;BME280;8009;50.070;8.232;2023-12-20T03:24:26;99924.63;;;9.17;70.25
15817;BME280;8009;50.070;8.232;2023-12-20T03:26:54;99931.59;;;9.19;70.31
15817;BME280;8009;50.070;8.232;2023-12-20T03:29:25;99940.53;;;9.33;70.01
15817;BME280;8009;50.070;8.232;2023-12-20T03:31:53;99934.94;;;9.10;71.10
15817;BME280;8009;50.070;8.232;2023-12-20T03:34:24;99953.38;;;9.16;70.74
15817;BME280;8009;50.070;8.232;2023-12-20T03:36:54;99948.75;;;9.18;70.39
15817;BME280;8009;50.070;8.232;2023-12-20T03:39:22;99947.53;;;8.84;72.28
15817;BME280;8009;50.070;8.232;2023-12-20T03:41:51;99956.06;;;8.78;71.77
15817;BME280;8009;50.070;8.232;2023-12-20T03:44:19;99953.59;;;9.00;71.37
15817;BME280;8009;50.070;8.232;2023-12-20T03:46:54;99962.91;;;8.69;72.69
15817;BME280;8009;50.070;8.232;2023-12-20T03:49:26;99962.50;;;8.36;73.22
15817;BME280;8009;50.070;8.232;2023-12-20T03:51:54;99954.88;;;8.95;71.16
15817;BME280;8009;50.070;8.232;2023-12-20T03:54:25;99952.41;;;9.05;71.39
15817;BME280;8009;50.070;8.232;2023-12-20T03:56:57;99957.00;;;8.64;72.96
15817;BME280;8009;50.070;8.232;2023-12-20T03:59:26;99954.88;;;8.15;75.18
15817;BME280;8009;50.070;8.232;2023-12-20T04:01:57;99952.47;;;8.65;72.97
15817;BME280;8009;50.070;8.232;2023-12-20T04:04:26;99949.84;;;8.50;73.72
15817;BME280;8009;50.070;8.232;2023-12-20T04:06:54;99956.72;;;8.94;72.01
15817;BME280;8009;50.070;8.232;2023-12-20T04:09:23;99947.78;;;9.07;71.26
15817;BME280;8009;50.070;8.232;2023-12-20T04:11:53;99958.03;;;9.01;71.83
15817;BME280;8009;50.070;8.232;2023-12-20T04:14:21;99959.28;;;9.34;70.55
15817;BME280;8009;50.070;8.232;2023-12-20T04:16:50;99959.50;;;8.93;71.67
15817;BME280;8009;50.070;8.232;2023-12-20T04:19:21;99963.28;;;9.03;71.78
15817;BME280;8009;50.070;8.232;2023-12-20T04:21:49;99971.03;;;8.95;71.63
15817;BME280;8009;50.070;8.232;2023-12-20T04:24:18;99980.06;;;8.81;72.44
15817;BME280;8009;50.070;8.232;2023-12-20T04:26:47;99976.91;;;8.62;73.29
15817;BME280;8009;50.070;8.232;2023-12-20T04:29:15;99976.75;;;8.90;72.04
15817;BME280;8009;50.070;8.232;2023-12-20T04:31:44;99982.66;;;8.95;71.62
15817;BME280;8009;50.070;8.232;2023-12-20T04:34:12;99976.22;;;9.11;70.79
15817;BME280;8009;50.070;8.232;2023-12-20T04:36:43;99986.47;;;9.06;71.44
15817;BME280;8009;50.070;8.232;2023-12-20T04:39:21;99988.81;;;9.10;70.97
15817;BME280;8009;50.070;8.232;2023-12-20T04:41:49;99989.69;;;9.36;70.15
15817;BME280;8009;50.070;8.232;2023-12-20T04:44:18;100001.97;;;8.89;71.51
15817;BME280;8009;50.070;8.232;2023-12-20T04:46:46;100003.91;;;9.13;71.43
15817;BME280;8009;50.070;8.232;2023-12-20T04:49:14;100013.03;;;8.30;73.81
15817;BME280;8009;50.070;8.232;2023-12-20T04:51:45;100017.28;;;8.62;71.82
15817;BME280;8009;50.070;8.232;2023-12-20T04:54:14;100019.38;;;8.02;70.65
15817;BME280;8009;50.070;8.232;2023-12-20T04:56:42;100028.47;;;8.14;70.48
15817;BME280;8009;50.070;8.232;2023-12-20T04:59:17;100023.28;;;8.11;70.73
15817;BME280;8009;50.070;8.232;2023-12-20T05:01:45;100031.13;;;7.87;71.41
15817;BME280;8009;50.070;8.232;2023-12-20T05:04:16;100029.09;;;8.32;69.97
15817;BME280;8009;50.070;8.232;2023-12-20T05:06:47;100028.28;;;8.71;69.14
15817;BME280;8009;50.070;8.232;2023-12-20T05:09:15;100020.16;;;8.98;68.28
15817;BME280;8009;50.070;8.232;2023-12-20T05:11:43;100033.75;;;8.97;68.01
15817;BME280;8009;50.070;8.232;2023-12-20T05:14:12;100040.59;;;8.48;69.03
15817;BME280;8009;50.070;8.232;2023-12-20T05:16:40;100041.97;;;8.41;68.69
15817;BME280;8009;50.070;8.232;2023-12-20T05:19:09;100035.25;;;7.36;71.14
15817;BME280;8009;50.070;8.232;2023-12-20T05:21:37;100032.34;;;7.96;68.15
15817;BME280;8009;50.070;8.232;2023-12-20T05:24:08;100031.31;;;8.40;68.77
15817;BME280;8009;50.070;8.232;2023-12-20T05:26:36;100033.84;;;8.14;69.29
15817;BME280;8009;50.070;8.232;2023-12-20T05:29:05;100034.50;;;8.32;68.05
15817;BME280;8009;50.070;8.232;2023-12-20T05:31:34;100032.88;;;8.57;66.43
15817;BME280;8009;50.070;8.232;2023-12-20T05:34:02;100025.22;;;8.90;65.50
15817;BME280;8009;50.070;8.232;2023-12-20T05:36:30;100030.59;;;8.90;65.66
15817;BME280;8009;50.070;8.232;2023-12-20T05:38:58;100025.56;;;8.98;65.23
15817;BME280;8009;50.070;8.232;2023-12-20T05:41:32;100020.81;;;8.62;66.80
15817;BME280;8009;50.070;8.232;2023-12-20T05:44:01;100024.38;;;8.90;66.22
15817;BME280;8009;50.070;8.232;2023-12-20T05:46:30;100030.41;;;9.06;65.70
15817;BME280;8009;50.070;8.232;2023-12-20T05:48:58;100036.84;;;9.03;66.16
15817;BME280;8009;50.070;8.232;2023-12-20T05:51:27;100029.41;;;8.82;66.67
15817;BME280;8009;50.070;8.232;2023-12-20T05:53:55;100039.44;;;7.97;68.76
15817;BME280;8009;50.070;8.232;2023-12-20T05:56:25;100052.06;;;8.65;67.63
15817;BME280;8009;50.070;8.232;2023-12-20T05:58:56;100051.22;;;8.64;67.35
15817;BME280;8009;50.070;8.232;2023-12-20T06:01:25;100053.88;;;8.51;67.05
15817;BME280;8009;50.070;8.232;2023-12-20T06:03:53;100045.03;;;8.89;66.38
15817;BME280;8009;50.070;8.232;2023-12-20T06:06:21;100049.72;;;8.73;66.99
15817;BME280;8009;50.070;8.232;2023-12-20T06:08:50;100048.13;;;8.83;66.03
15817;BME280;8009;50.070;8.232;2023-12-20T06:11:23;100057.66;;;8.62;65.59
15817;BME280;8009;50.070;8.232;2023-12-20T06:13:52;100051.38;;;8.88;64.93
15817;BME280;8009;50.070;8.232;2023-12-20T06:16:23;100062.97;;;8.76;64.91
15817;BME280;8009;50.070;8.232;2023-12-20T06:18:52;100067.72;;;8.72;64.50
15817;BME280;8009;50.070;8.232;2023-12-20T06:21:20;100082.28;;;8.56;65.56
15817;BME280;8009;50.070;8.232;2023-12-20T06:23:50;100085.03;;;8.68;64.77
15817;BME280;8009;50.070;8.232;2023-12-20T06:26:19;100089.16;;;8.18;65.70
15817;BME280;8009;50.070;8.232;2023-12-20T06:28:49;100079.69;;;8.54;65.29
15817;BME280;8009;50.070;8.232;2023-12-20T06:31:23;100077.34;;;8.62;65.18
15817;BME280;8009;50.070;8.232;2023-12-20T06:33:54;100049.84;;;8.44;65.54
15817;BME280;8009;50.070;8.232;2023-12-20T06:36:33;100043.88;;;8.39;65.61
15817;BME280;8009;50.070;8.232;2023-12-20T06:39:01;100051.13;;;8.24;65.48
15817;BME280;8009;50.070;8.232;2023-12-20T06:41:30;100054.41;;;8.15;66.96
15817;BME280;8009;50.070;8.232;2023-12-20T06:43:58;100058.22;;;8.40;66.23
15817;BME280;8009;50.070;8.232;2023-12-20T06:46:29;100060.69;;;8.43;66.12
15817;BME280;8009;50.070;8.232;2023-12-20T06:48:58;100057.53;;;8.36;66.36
15817;BME280;8009;50.070;8.232;2023-12-20T06:51:26;100068.19;;;8.52;65.22
15817;BME280;8009;50.070;8.232;2023-12-20T06:53:56;100078.09;;;8.51;65.67
15817;BME280;8009;50.070;8.232;2023-12-20T06:56:25;100084.16;;;8.26;66.61
15817;BME280;8009;50.070;8.232;2023-12-20T06:58:53;100091.47;;;8.39;66.06
15817;BME280;8009;50.070;8.232;2023-12-20T07:01:22;100079.44;;;8.30;66.61
15817;BME280;8009;50.070;8.232;2023-12-20T07:03:53;100083.38;;;8.39;66.42
15817;BME280;8009;50.070;8.232;2023-12-20T07:06:21;100090.09;;;8.31;66.23
15817;BME280;8009;50.070;8.232;2023-12-20T07:08:51;100090.03;;;8.04;67.47
15817;BME280;8009;50.070;8.232;2023-12-20T07:11:20;100088.16;;;7.64;68.35
15817;BME280;8009;50.070;8.232;2023-12-20T07:13:50;100089.19;;;7.47;68.65
15817;BME280;8009;50.070;8.232;2023-12-20T07:16:19;100102.94;;;7.99;66.68
15817;BME280;8009;50.070;8.232;2023-12-20T07:18:48;100102.69;;;8.31;66.19
15817;BME280;8009;50.070;8.232;2023-12-20T07:21:20;100112.97;;;8.39;65.96
15817;BME280;8009;50.070;8.232;2023-12-20T07:23:48;100117.13;;;8.44;65.51
15817;BME280;8009;50.070;8.232;2023-12-20T07:26:17;100109.50;;;8.37;66.12
15817;BME280;8009;50.070;8.232;2023-12-20T07:28:49;100111.59;;;8.60;64.85
15817;BME280;8009;50.070;8.232;2023-12-20T07:31:19;100111.34;;;8.36;64.95
15817;BME280;8009;50.070;8.232;2023-12-20T07:33:49;100117.72;;;8.21;66.20
15817;BME280;8009;50.070;8.232;2023-12-20T07:36:22;100116.81;;;8.35;66.02
15817;BME280;8009;50.070;8.232;2023-12-20T07:38:50;100106.81;;;8.37;65.71
15817;BME280;8009;50.070;8.232;2023-12-20T07:41:20;100110.81;;;8.17;66.67
15817;BME280;8009;50.070;8.232;2023-12-20T07:43:51;100119.25;;;8.25;65.87
15817;BME280;8009;50.070;8.232;2023-12-20T07:46:20;100128.47;;;8.21;66.76
15817;BME280;8009;50.070;8.232;2023-12-20T07:48:50;100123.09;;;7.78;67.81
15817;BME280;8009;50.070;8.232;2023-12-20T07:51:18;100131.94;;;8.37;66.03
15817;BME280;8009;50.070;8.232;2023-12-20T07:53:51;100126.06;;;8.45;65.54
15817;BME280;8009;50.070;8.232;2023-12-20T07:56:21;100122.47;;;8.30;66.05
15817;BME280;8009;50.070;8.232;2023-12-20T07:58:50;100129.22;;;8.51;65.32
15817;BME280;8009;50.070;8.232;2023-12-20T08:01:19;100128.91;;;8.27;67.13
15817;BME280;8009;50.070;8.232;2023-12-20T08:03:50;100119.53;;;7.92;67.26
15817;BME280;8009;50.070;8.232;2023-12-20T08:06:20;100122.91;;;7.95;67.58
15817;BME280;8009;50.070;8.232;2023-12-20T08:08:57;100123.00;;;7.65;69.23
15817;BME280;8009;50.070;8.232;2023-12-20T08:11:25;100124.63;;;8.11;67.55
15817;BME280;8009;50.070;8.232;2023-12-20T08:13:53;100125.84;;;8.48;66.36
15817;BME280;8009;50.070;8.232;2023-12-20T08:16:22;100126.28;;;7.99;67.48
15817;BME280;8009;50.070;8.232;2023-12-20T08:18:50;100126.22;;;8.27;66.76
15817;BME280;8009;50.070;8.232;2023-12-20T08:21:19;100131.25;;;8.48;66.04
15817;BME280;8009;50.070;8.232;2023-12-20T08:23:48;100133.44;;;8.56;65.95
15817;BME280;8009;50.070;8.232;2023-12-20T08:26:22;100131.72;;;8.26;67.19
15817;BME280;8009;50.070;8.232;2023-12-20T08:28:51;100137.59;;;8.04;68.87
15817;BME280;8009;50.070;8.232;2023-12-20T08:31:24;100137.84;;;8.57;66.62
15817;BME280;8009;50.070;8.232;2023-12-20T08:33:53;100148.16;;;7.78;69.16
15817;BME280;8009;50.070;8.232;2023-12-20T08:36:22;100154.00;;;8.42;66.36
15817;BME280;8009;50.070;8.232;2023-12-20T08:38:50;100158.34;;;8.45;66.71
15817;BME280;8009;50.070;8.232;2023-12-20T08:41:24;100157.28;;;8.33;67.10
15817;BME280;8009;50.070;8.232;2023-12-20T08:43:53;100152.50;;;8.10;68.73
15817;BME280;8009;50.070;8.232;2023-12-20T08:46:23;100148.91;;;8.23;67.43
15817;BME280;8009;50.070;8.232;2023-12-20T08:48:52;100145.97;;;8.14;68.01
15817;BME280;8009;50.070;8.232;2023-12-20T08:51:21;100151.25;;;7.87;69.93
15817;BME280;8009;50.070;8.232;2023-12-20T08:53:51;100151.84;;;8.62;66.99
15817;BME280;8009;50.070;8.232;2023-12-20T08:56:20;100153.44;;;8.51;67.49
15817;BME280;8009;50.070;8.232;2023-12-20T08:58:51;100153.00;;;8.72;66.86
15817;BME280;8009;50.070;8.232;2023-12-20T09:01:23;100153.91;;;8.29;68.45
15817;BME280;8009;50.070;8.232;2023-12-20T09:03:54;100151.69;;;8.36;67.87
15817;BME280;8009;50.070;8.232;2023-12-20T09:06:22;100152.41;;;8.40;66.95
15817;BME280;8009;50.070;8.232;2023-12-20T09:08:51;100143.56;;;8.38;67.82
15817;BME280;8009;50.070;8.232;2023-12-20T09:11:22;100145.09;;;7.85;69.61
15817;BME280;8009;50.070;8.232;2023-12-20T09:13:53;100140.41;;;8.58;67.42
15817;BME280;8009;50.070;8.232;2023-12-20T09:16:21;100147.88;;;8.40;67.12
15817;BME280;8009;50.070;8.232;2023-12-20T09:18:49;100135.72;;;8.62;66.58
15817;BME280;8009;50.070;8.232;2023-12-20T09:21:18;100138.06;;;7.96;69.05
15817;BME280;8009;50.070;8.232;2023-12-20T09:23:46;100135.56;;;8.22;68.94
15817;BME280;8009;50.070;8.232;2023-12-20T09:26:14;100140.91;;;8.50;67.71
15817;BME280;8009;50.070;8.232;2023-12-20T09:28:44;100130.75;;;8.56;67.91
15817;BME280;8009;50.070;8.232;2023-12-20T09:31:15;100123.94;;;7.93;69.02
15817;BME280;8009;50.070;8.232;2023-12-20T09:33:44;100138.53;;;8.46;68.16
15817;BME280;8009;50.070;8.232;2023-12-20T09:36:12;100145.25;;;8.53;67.98
15817;BME280;8009;50.070;8.232;2023-12-20T09:38:40;100153.94;;;8.44;68.49
15817;BME280;8009;50.070;8.232;2023-12-20T09:41:11;100158.06;;;8.21;69.55
15817;BME280;8009;50.070;8.232;2023-12-20T09:43:40;100150.81;;;8.64;68.36
15817;BME280;8009;50.070;8.232;2023-12-20T09:46:10;100158.91;;;8.50;68.20
15817;BME280;8009;50.070;8.232;2023-12-20T09:48:43;100153.38;;;8.66;69.20
15817;BME280;8009;50.070;8.232;2023-12-20T09:51:15;100157.56;;;9.11;66.80
15817;BME280;8009;50.070;8.232;2023-12-20T09:53:44;100143.50;;;8.66;69.10
15817;BME280;8009;50.070;8.232;2023-12-20T09:56:13;100147.25;;;8.91;67.32
15817;BME280;8009;50.070;8.232;2023-12-20T09:58:42;100145.88;;;8.98;67.21
15817;BME280;8009;50.070;8.232;2023-12-20T10:01:11;100138.28;;;9.05;67.25
15817;BME280;8009;50.070;8.232;2023-12-20T10:03:44;100147.41;;;8.75;68.11
15817;BME280;8009;50.070;8.232;2023-12-20T10:06:13;100156.88;;;8.53;69.08
15817;BME280;8009;50.070;8.232;2023-12-20T10:08:43;100155.94;;;9.09;67.17
15817;BME280;8009;50.070;8.232;2023-12-20T10:11:14;100149.59;;;9.22;66.28
15817;BME280;8009;50.070;8.232;2023-12-20T10:13:42;100135.41;;;9.46;66.73
15817;BME280;8009;50.070;8.232;2023-12-20T10:16:11;100138.78;;;9.49;66.04
15817;BME280;8009;50.070;8.232;2023-12-20T10:18:45;100137.19;;;9.47;65.65
15817;BME280;8009;50.070;8.232;2023-12-20T10:21:13;100138.22;;;9.32;66.17
15817;BME280;8009;50.070;8.232;2023-12-20T10:23:43;100130.41;;;9.54;65.31
15817;BME280;8009;50.070;8.232;2023-12-20T10:26:19;100116.03;;;9.53;65.09
15817;BME280;8009;50.070;8.232;2023-12-20T10:28:50;100116.00;;;9.28;66.18
15817;BME280;8009;50.070;8.232;2023-12-20T10:31:27;100112.72;;;9.63;64.70
15817;BME280;8009;50.070;8.232;2023-12-20T10:33:59;100115.16;;;9.27;65.37
15817;BME280;8009;50.070;8.232;2023-12-20T10:36:29;100106.84;;;9.31;65.47
15817;BME280;8009;50.070;8.232;2023-12-20T10:38:59;100114.97;;;9.03;66.11
15817;BME280;8009;50.070;8.232;2023-12-20T10:41:30;100097.06;;;9.68;64.68
15817;BME280;8009;50.070;8.232;2023-12-20T10:43:59;100091.47;;;9.58;64.74
15817;BME280;8009;50.070;8.232;2023-12-20T10:46:31;100083.69;;;9.79;64.58
15817;BME280;8009;50.070;8.232;2023-12-20T10:49:05;100076.09;;;10.10;63.23
15817;BME280;8009;50.070;8.232;2023-12-20T10:51:34;100085.41;;;9.67;64.91
15817;BME280;8009;50.070;8.232;2023-12-20T10:54:02;100077.31;;;9.16;66.20
15817;BME280;8009;50.070;8.232;2023-12-20T10:56:35;100074.53;;;9.43;64.65
15817;BME280;8009;50.070;8.232;2023-12-20T10:59:06;100072.91;;;9.28;63.31
15817;BME280;8009;50.070;8.232;2023-12-20T11:01:41;100071.59;;;9.72;62.36
15817;BME280;8009;50.070;8.232;2023-12-20T11:04:18;100070.28;;;9.90;62.09
15817;BME280;8009;50.070;8.232;2023-12-20T11:06:53;100080.44;;;9.61;62.59
15817;BME280;8009;50.070;8.232;2023-12-20T11:09:28;100077.97;;;9.96;60.57
15817;BME280;8009;50.070;8.232;2023-12-20T11:12:02;100078.69;;;10.11;60.34
15817;BME280;8009;50.070;8.232;2023-12-20T11:14:39;100080.06;;;10.30;59.79
15817;BME280;8009;50.070;8.232;2023-12-20T11:17:10;100074.56;;;10.31;59.64
15817;BME280;8009;50.070;8.232;2023-12-20T11:20:04;100068.47;;;10.04;61.07
15817;BME280;8009;50.070;8.232;2023-12-20T11:22:34;100072.16;;;9.77;61.31
15817;BME280;8009;50.070;8.232;2023-12-20T11:25:04;100073.34;;;9.60;60.72
15817;BME280;8009;50.070;8.232;2023-12-20T11:27:34;100089.34;;;10.13;59.61
15817;BME280;8009;50.070;8.232;2023-12-20T11:30:07;100087.31;;;10.16;59.58
15817;BME280;8009;50.070;8.232;2023-12-20T11:32:37;100094.69;;;9.63;60.57
15817;BME280;8009;50.070;8.232;2023-12-20T11:35:20;100090.66;;;10.57;68.35
15817;BME280;8009;50.070;8.232;2023-12-20T11:37:51;100094.69;;;9.89;60.19
15817;BME280;8009;50.070;8.232;2023-12-20T11:40:19;100073.22;;;9.23;60.86
15817;BME280;8009;50.070;8.232;2023-12-20T11:42:49;100082.03;;;10.02;60.50
15817;BME280;8009;50.070;8.232;2023-12-20T11:45:24;100068.59;;;9.51;61.96
15817;BME280;8009;50.070;8.232;2023-12-20T11:47:53;100076.25;;;9.57;59.42
15817;BME280;8009;50.070;8.232;2023-12-20T11:50:25;100069.69;;;9.74;59.70
15817;BME280;8009;50.070;8.232;2023-12-20T11:52:55;100061.47;;;9.63;61.85
15817;BME280;8009;50.070;8.232;2023-12-20T11:55:24;100059.00;;;10.22;60.21
15817;BME280;8009;50.070;8.232;2023-12-20T11:57:52;100043.75;;;9.97;58.47
15817;BME280;8009;50.070;8.232;2023-12-20T12:00:26;100042.44;;;10.02;58.35
15817;BME280;8009;50.070;8.232;2023-12-20T12:02:57;100037.50;;;9.96;58.80
15817;BME280;8009;50.070;8.232;2023-12-20T12:05:31;100036.38;;;10.12;58.69
15817;BME280;8009;50.070;8.232;2023-12-20T12:08:09;100032.94;;;10.46;57.96
15817;BME280;8009;50.070;8.232;2023-12-20T12:10:44;100023.66;;;10.38;57.83
15817;BME280;8009;50.070;8.232;2023-12-20T12:13:16;100026.28;;;9.90;58.90
15817;BME280;8009;50.070;8.232;2023-12-20T12:15:47;100028.59;;;10.07;58.48
15817;BME280;8009;50.070;8.232;2023-12-20T12:18:16;100033.97;;;10.20;59.00
15817;BME280;8009;50.070;8.232;2023-12-20T12:20:48;100036.59;;;10.09;59.64
15817;BME280;8009;50.070;8.232;2023-12-20T12:23:23;100029.25;;;10.11;59.28
15817;BME280;8009;50.070;8.232;2023-12-20T12:25:51;100022.97;;;9.61;62.17
15817;BME280;8009;50.070;8.232;2023-12-20T12:28:20;100028.94;;;10.15;59.21
15817;BME280;8009;50.070;8.232;2023-12-20T12:30:56;100027.00;;;10.41;59.51
15817;BME280;8009;50.070;8.232;2023-12-20T12:33:25;100028.00;;;10.04;59.21
15817;BME280;8009;50.070;8.232;2023-12-20T12:35:56;100036.78;;;10.55;57.48
15817;BME280;8009;50.070;8.232;2023-12-20T12:38:25;100023.75;;;10.12;61.68
15817;BME280;8009;50.070;8.232;2023-12-20T12:40:54;100022.81;;;9.88;59.72
15817;BME280;8009;50.070;8.232;2023-12-20T12:43:23;100021.84;;;10.01;63.35
15817;BME280;8009;50.070;8.232;2023-12-20T12:45:51;100016.56;;;10.37;59.13
15817;BME280;8009;50.070;8.232;2023-12-20T12:48:20;100005.78;;;10.72;57.53
15817;BME280;8009;50.070;8.232;2023-12-20T12:50:49;100002.38;;;9.60;60.12
15817;BME280;8009;50.070;8.232;2023-12-20T12:53:23;99997.84;;;10.46;58.60
15817;BME280;8009;50.070;8.232;2023-12-20T12:55:51;100001.31;;;10.60;58.67
15817;BME280;8009;50.070;8.232;2023-12-20T12:58:22;99992.50;;;10.58;59.55
15817;BME280;8009;50.070;8.232;2023-12-20T13:00:53;99979.44;;;10.52;61.31
15817;BME280;8009;50.070;8.232;2023-12-20T13:03:22;99986.47;;;9.93;66.39
15817;BME280;8009;50.070;8.232;2023-12-20T13:08:57;99957.66;;;10.31;60.04
15817;BME280;8009;50.070;8.232;2023-12-20T13:11:25;99951.56;;;10.40;61.97
15817;BME280;8009;50.070;8.232;2023-12-20T13:13:56;99948.66;;;10.06;63.07
15817;BME280;8009;50.070;8.232;2023-12-20T13:16:26;99954.47;;;10.37;59.85
15817;BME280;8009;50.070;8.232;2023-12-20T13:18:55;99932.53;;;10.77;58.72
15817;BME280;8009;50.070;8.232;2023-12-20T13:21:25;99936.38;;;10.85;65.33
15817;BME280;8009;50.070;8.232;2023-12-20T13:23:58;99937.09;;;10.98;62.77
15817;BME280;8009;50.070;8.232;2023-12-20T13:26:38;99930.72;;;10.42;59.81
15817;BME280;8009;50.070;8.232;2023-12-20T13:29:14;99917.25;;;10.53;59.63
15817;BME280;8009;50.070;8.232;2023-12-20T13:31:46;99922.75;;;9.80;62.27
15817;BME280;8009;50.070;8.232;2023-12-20T13:37:21;99924.72;;;10.01;61.96
15817;BME280;8009;50.070;8.232;2023-12-20T13:43:19;99929.88;;;10.88;60.29